Time;durP1;ratioP1;P1;durP2;ratioP2;P2;SDS_P1;SDS_P2;PMS_P1;PMS_P2;Temp;Humidity;BMP_temperature;BMP_pressure;BME280_temperature;BME280_humidity;BME280_pressure;Samples;Min_cycle;Max_cycle;Signal;HPM_P1;HPM_P2
2024/03/10 00:01:24;;;;;;;55.30;29.80;;;;;;;4.05;71.59;99879.52;131001;1251;106520;-78
2024/03/10 00:04:30;;;;;;;54.30;29.80;;;;;;;4.08;71.68;99882.96;131021;1253;106814;-78
2024/03/10 00:07:35;;;;;;;52.80;29.90;;;;;;;4.08;71.71;99901.64;131027;1251;107705;-78
2024/03/10 00:10:41;;;;;;;52.60;28.50;;;;;;;4.08;71.67;99916.40;130985;1251;107592;-78
2024/03/10 00:13:48;;;;;;;66.20;39.10;;;;;;;4.09;71.65;99913.13;131013;1251;107491;-77
2024/03/10 00:16:55;;;;;;;61.10;35.00;;;;;;;4.09;71.66;99904.55;131035;1260;106278;-78
2024/03/10 00:20:00;;;;;;;51.70;29.60;;;;;;;4.08;71.54;99903.23;131026;1251;106615;-78
2024/03/10 00:23:06;;;;;;;48.70;28.10;;;;;;;4.07;71.64;99888.86;130979;1254;106144;-78
2024/03/10 00:26:12;;;;;;;75.30;38.30;;;;;;;4.06;71.77;99890.34;131141;1254;107767;-79
2024/03/10 00:29:17;;;;;;;52.30;27.30;;;;;;;4.05;72.01;99892.73;131264;1263;106461;-78
2024/03/10 00:32:24;;;;;;;49.30;27.30;;;;;;;4.06;71.93;99886.49;131147;1264;106361;-77
2024/03/10 00:35:30;;;;;;;49.40;27.30;;;;;;;4.10;71.94;99882.06;131246;1254;106815;-78
2024/03/10 00:38:36;;;;;;;51.50;27.60;;;;;;;4.16;71.97;99886.23;131083;1254;107639;-77
2024/03/10 00:41:42;;;;;;;49.00;27.00;;;;;;;4.23;72.16;99881.40;131027;1254;107574;-80
2024/03/10 00:44:47;;;;;;;54.10;29.70;;;;;;;4.30;72.14;99876.25;131019;1254;106893;-77
2024/03/10 00:47:54;;;;;;;49.60;27.80;;;;;;;4.35;72.20;99872.44;131022;1261;107186;-77
2024/03/10 00:51:00;;;;;;;43.90;26.50;;;;;;;4.37;71.94;99866.81;131047;1254;106701;-80
2024/03/10 00:54:06;;;;;;;50.50;28.70;;;;;;;4.38;72.05;99864.27;130980;1254;107590;-78
2024/03/10 00:57:12;;;;;;;45.80;27.20;;;;;;;4.37;72.17;99861.65;131247;1251;107789;-79
2024/03/10 01:00:19;;;;;;;47.00;27.30;;;;;;;4.36;72.14;99861.39;131083;1254;106921;-79
2024/03/10 01:03:24;;;;;;;46.00;26.50;;;;;;;4.36;72.16;99860.02;131026;1253;105926;-79
2024/03/10 01:06:30;;;;;;;40.70;25.50;;;;;;;4.36;72.26;99858.38;131030;1254;107791;-79
2024/03/10 01:09:36;;;;;;;43.20;26.00;;;;;;;4.35;72.17;99853.01;131025;1254;107751;-78
2024/03/10 01:12:41;;;;;;;46.50;26.40;;;;;;;4.32;72.12;99848.45;131176;1253;106694;-78
2024/03/10 01:15:47;;;;;;;46.00;25.30;;;;;;;4.32;72.38;99845.81;131003;1254;107641;-78
2024/03/10 01:18:53;;;;;;;44.20;25.00;;;;;;;4.36;72.39;99843.28;130993;1251;107606;-79
2024/03/10 01:21:59;;;;;;;47.00;27.10;;;;;;;4.41;72.23;99840.58;131040;1263;108728;-78
2024/03/10 01:25:05;;;;;;;44.80;25.30;;;;;;;4.48;72.33;99845.27;130990;1253;108086;-78
2024/03/10 01:28:11;;;;;;;47.80;27.40;;;;;;;4.53;72.39;99841.36;131026;1254;107785;-78
2024/03/10 01:31:17;;;;;;;43.50;25.90;;;;;;;4.55;72.10;99839.27;131031;1253;108039;-78
2024/03/10 01:34:22;;;;;;;48.70;28.60;;;;;;;4.57;72.21;99840.54;131004;1253;106334;-79
2024/03/10 01:37:28;;;;;;;47.70;26.40;;;;;;;4.54;72.25;99841.39;131011;1253;105875;-78
2024/03/10 01:40:33;;;;;;;44.80;26.30;;;;;;;4.53;72.12;99839.05;131000;1254;106317;-79
2024/03/10 01:43:40;;;;;;;47.30;26.60;;;;;;;4.51;72.15;99841.19;130987;1254;106565;-78
2024/03/10 01:46:46;;;;;;;44.10;27.80;;;;;;;4.50;72.30;99844.06;131234;1251;106820;-78
2024/03/10 01:49:52;;;;;;;43.90;27.30;;;;;;;4.46;72.32;99845.59;131298;1253;108762;-78
2024/03/10 01:52:57;;;;;;;48.60;27.10;;;;;;;4.44;72.39;99846.52;131025;1254;107633;-78
2024/03/10 01:56:04;;;;;;;45.00;26.10;;;;;;;4.43;72.29;99841.64;130986;1254;107665;-78
2024/03/10 01:59:12;;;;;;;44.20;24.30;;;;;;;4.43;72.38;99838.48;130977;1254;108392;-78
2024/03/10 02:02:19;;;;;;;44.80;25.10;;;;;;;4.44;72.31;99842.41;131019;1251;106443;-79
2024/03/10 02:05:25;;;;;;;42.60;24.20;;;;;;;4.48;72.33;99843.52;131054;1251;108631;-78
2024/03/10 02:08:31;;;;;;;45.60;25.70;;;;;;;4.54;72.48;99846.25;131000;1254;107693;-78
2024/03/10 02:11:37;;;;;;;43.60;25.80;;;;;;;4.59;72.36;99837.70;131042;1254;108739;-78
2024/03/10 02:14:42;;;;;;;45.80;26.50;;;;;;;4.63;72.33;99836.11;131022;1254;106213;-78
2024/03/10 02:17:48;;;;;;;44.80;26.10;;;;;;;4.65;72.42;99829.46;130985;1254;106850;-78
2024/03/10 02:20:54;;;;;;;44.00;25.90;;;;;;;4.64;72.27;99825.64;131023;1263;107097;-79
2024/03/10 02:24:11;;;;;;;43.10;26.20;;;;;;;4.65;72.33;99833.85;131010;1263;108430;-79
2024/03/10 02:27:18;;;;;;;41.20;25.40;;;;;;;4.65;72.31;99829.98;131026;1251;108988;-78
2024/03/10 02:30:31;;;;;;;47.50;26.60;;;;;;;4.64;72.30;99829.71;131041;1251;108574;-79
2024/03/10 02:47:25;;;;;;;43.50;26.60;;;;;;;4.58;72.51;99829.53;131226;1254;108582;-77
2024/03/10 02:50:30;;;;;;;41.70;23.60;;;;;;;4.56;72.53;99829.69;131309;1251;107722;-77
2024/03/10 02:53:38;;;;;;;42.90;24.00;;;;;;;4.57;72.42;99831.89;131107;1254;108576;-79
2024/03/10 02:56:43;;;;;;;44.10;24.70;;;;;;;4.57;72.44;99827.98;131267;1253;107487;-77
2024/03/10 02:59:49;;;;;;;44.20;25.20;;;;;;;4.62;72.51;99829.18;131306;1253;107688;-78
2024/03/10 03:02:54;;;;;;;47.40;25.50;;;;;;;4.66;72.59;99828.30;131289;1251;108522;-78
2024/03/10 03:06:00;;;;;;;44.00;25.00;;;;;;;4.70;72.50;99828.52;131193;1254;108673;-78
2024/03/10 03:09:06;;;;;;;48.90;26.70;;;;;;;4.72;72.44;99825.91;131007;1253;106484;-77
2024/03/10 03:12:12;;;;;;;44.70;26.00;;;;;;;4.70;72.44;99828.45;131163;1263;107704;-77
2024/03/10 03:15:18;;;;;;;44.40;26.90;;;;;;;4.70;72.47;99830.11;131073;1253;106127;-78
2024/03/10 03:18:24;;;;;;;44.40;26.40;;;;;;;4.68;72.50;99828.13;131337;1253;106928;-77
2024/03/10 03:21:29;;;;;;;46.90;26.60;;;;;;;4.67;72.52;99824.74;131291;1253;108657;-78
2024/03/10 03:24:36;;;;;;;45.20;26.70;;;;;;;4.63;72.44;99824.20;130999;1254;106384;-78
2024/03/10 03:27:42;;;;;;;48.40;26.50;;;;;;;4.60;72.38;99823.50;131069;1251;107180;-78
2024/03/10 03:30:48;;;;;;;47.00;26.40;;;;;;;4.58;72.45;99822.47;131025;1254;108503;-77
2024/03/10 03:33:53;;;;;;;46.90;26.10;;;;;;;4.56;72.42;99823.14;131003;1251;108402;-77
2024/03/10 03:36:59;;;;;;;46.00;26.60;;;;;;;4.56;72.46;99821.79;130988;1254;107133;-77
2024/03/10 03:40:06;;;;;;;47.90;25.90;;;;;;;4.52;72.49;99813.05;131142;1251;108659;-77
2024/03/10 03:43:12;;;;;;;47.40;26.20;;;;;;;4.52;72.63;99819.41;131057;1251;108544;-78
2024/03/10 03:46:18;;;;;;;44.00;24.40;;;;;;;4.55;72.76;99814.98;131045;1253;107812;-78
2024/03/10 03:49:23;;;;;;;42.10;24.70;;;;;;;4.57;72.72;99816.93;131192;1251;106377;-78
2024/03/10 03:52:29;;;;;;;38.50;24.00;;;;;;;4.59;72.60;99806.49;131312;1254;109365;-78
2024/03/10 03:55:35;;;;;;;43.60;26.60;;;;;;;4.63;72.55;99807.05;131267;1254;107434;-78
2024/03/10 03:58:40;;;;;;;43.10;25.30;;;;;;;4.65;72.50;99802.14;131122;1254;107592;-78
2024/03/10 04:01:46;;;;;;;42.50;25.60;;;;;;;4.65;72.50;99796.00;131190;1253;106091;-79
2024/03/10 04:04:52;;;;;;;44.00;26.20;;;;;;;4.65;72.45;99792.46;131324;1253;107707;-78
2024/03/10 04:07:57;;;;;;;41.60;24.40;;;;;;;4.62;72.33;99793.25;131271;1254;107661;-78
2024/03/10 04:11:03;;;;;;;40.40;24.30;;;;;;;4.60;72.55;99795.37;131320;1253;106538;-78
2024/03/10 04:14:09;;;;;;;42.00;24.70;;;;;;;4.59;72.48;99793.34;131210;1251;108330;-78
2024/03/10 04:17:15;;;;;;;42.50;24.70;;;;;;;4.56;72.45;99794.06;131159;1255;108644;-78
2024/03/10 04:20:21;;;;;;;41.30;24.50;;;;;;;4.53;72.23;99793.98;131158;1263;109208;-78
2024/03/10 04:23:26;;;;;;;39.10;23.90;;;;;;;4.50;72.32;99799.15;131244;1253;106379;-78
2024/03/10 04:26:32;;;;;;;41.00;24.50;;;;;;;4.48;72.43;99796.16;131226;1253;106941;-78
2024/03/10 04:29:38;;;;;;;41.70;24.30;;;;;;;4.45;72.43;99797.46;131224;1251;106541;-78
2024/03/10 04:32:44;;;;;;;40.90;22.80;;;;;;;4.42;72.37;99794.13;131339;1253;107976;-78
2024/03/10 04:35:49;;;;;;;39.00;22.40;;;;;;;4.41;72.28;99791.95;131022;1254;107609;-78
2024/03/10 04:38:56;;;;;;;41.20;23.50;;;;;;;4.43;72.43;99797.27;131015;1254;107898;-78
2024/03/10 04:42:01;;;;;;;40.10;23.30;;;;;;;4.47;72.58;99800.23;131172;1251;108679;-78
2024/03/10 04:45:08;;;;;;;45.00;25.80;;;;;;;4.50;72.54;99801.77;131044;1253;108683;-79
2024/03/10 04:48:15;;;;;;;39.90;23.30;;;;;;;4.53;72.34;99800.68;131306;1256;107488;-77
2024/03/10 04:51:21;;;;;;;40.30;24.00;;;;;;;4.56;72.55;99793.42;131221;1254;106464;-78
2024/03/10 04:54:28;;;;;;;43.00;25.60;;;;;;;4.56;72.32;99784.24;131243;1253;108457;-76
2024/03/10 04:57:34;;;;;;;41.80;25.50;;;;;;;4.56;72.31;99773.63;131048;1253;107464;-77
2024/03/10 05:00:39;;;;;;;42.20;25.30;;;;;;;4.55;72.21;99767.08;131015;1251;106557;-79
2024/03/10 05:03:45;;;;;;;42.20;24.80;;;;;;;4.52;72.31;99768.13;131159;1253;106595;-77
2024/03/10 05:06:50;;;;;;;37.30;23.30;;;;;;;4.49;72.36;99770.14;131114;1254;107238;-77
2024/03/10 05:09:57;;;;;;;40.90;24.50;;;;;;;4.47;72.48;99772.29;131084;1251;107612;-79
2024/03/10 05:13:03;;;;;;;43.30;24.30;;;;;;;4.45;72.42;99768.18;131306;1251;105766;-76
2024/03/10 05:16:09;;;;;;;41.80;25.30;;;;;;;4.43;72.38;99768.39;131295;1253;106742;-77
2024/03/10 05:19:15;;;;;;;42.50;24.50;;;;;;;4.41;72.34;99771.89;131312;1254;108617;-79
2024/03/10 05:22:20;;;;;;;43.00;25.30;;;;;;;4.40;72.41;99768.48;131318;1253;107796;-78
2024/03/10 05:25:26;;;;;;;47.50;28.70;;;;;;;4.39;72.23;99772.42;131256;1253;106470;-78
2024/03/10 05:28:33;;;;;;;54.30;31.90;;;;;;;4.37;72.37;99782.27;131084;1253;108682;-77
2024/03/10 05:31:38;;;;;;;47.10;30.30;;;;;;;4.34;72.29;99799.20;131288;1253;108561;-78
2024/03/10 05:34:44;;;;;;;51.60;28.70;;;;;;;4.32;72.45;99806.41;131006;1253;107406;-78
2024/03/10 05:37:49;;;;;;;47.10;27.20;;;;;;;4.33;72.41;99804.74;130969;1255;107624;-78
2024/03/10 05:40:55;;;;;;;54.20;31.20;;;;;;;4.36;72.60;99806.84;131076;1253;108751;-78
2024/03/10 05:44:01;;;;;;;42.20;25.30;;;;;;;4.40;72.55;99806.33;131211;1254;105774;-78
2024/03/10 05:47:07;;;;;;;57.80;31.70;;;;;;;4.47;72.62;99806.45;131057;1251;108448;-78
2024/03/10 05:50:12;;;;;;;44.30;26.60;;;;;;;4.51;72.40;99809.95;131276;1251;108637;-78
2024/03/10 05:53:19;;;;;;;46.10;26.80;;;;;;;4.55;72.40;99809.33;131001;1260;107268;-78
2024/03/10 05:56:24;;;;;;;47.20;28.80;;;;;;;4.57;72.32;99810.70;131324;1251;106677;-78
2024/03/10 05:59:30;;;;;;;44.70;25.90;;;;;;;4.59;72.36;99807.55;131340;1253;107409;-79
2024/03/10 06:02:36;;;;;;;42.60;25.50;;;;;;;4.61;72.41;99809.66;131137;1253;106262;-80
2024/03/10 06:05:42;;;;;;;48.90;28.30;;;;;;;4.65;72.32;99809.74;131042;1253;106438;-77
2024/03/10 06:08:47;;;;;;;43.20;26.80;;;;;;;4.68;72.14;99811.41;131321;1253;108547;-79
2024/03/10 06:11:53;;;;;;;42.80;26.70;;;;;;;4.69;72.21;99812.94;131410;1251;106488;-77
2024/03/10 06:14:59;;;;;;;44.50;25.90;;;;;;;4.69;72.34;99809.38;131300;1251;106479;-77
2024/03/10 06:18:15;;;;;;;41.90;26.20;;;;;;;4.70;72.24;99809.14;131065;1251;107437;-78
2024/03/10 06:28:08;;;;;;;46.10;26.80;;;;;;;4.80;72.42;99797.04;131041;1253;106496;-80
2024/03/10 06:31:13;;;;;;;40.90;25.40;;;;;;;4.90;72.19;99797.59;130997;1253;106376;-77
2024/03/10 06:34:20;;;;;;;44.80;26.70;;;;;;;5.02;72.33;99789.88;131043;1251;107422;-78
2024/03/10 06:37:26;;;;;;;42.30;24.60;;;;;;;5.18;72.13;99791.23;130988;1251;109442;-78
2024/03/10 06:40:32;;;;;;;37.40;22.40;;;;;;;5.36;72.09;99791.42;131072;1249;106158;-77
2024/03/10 06:43:38;;;;;;;40.80;24.60;;;;;;;5.57;71.98;99789.33;131026;1253;105543;-78
2024/03/10 06:46:45;;;;;;;58.80;32.70;;;;;;;5.76;71.62;99787.28;131189;1251;106511;-77
2024/03/10 06:49:51;;;;;;;41.60;25.40;;;;;;;5.95;71.54;99785.16;131114;1253;107067;-78
2024/03/10 06:52:57;;;;;;;41.90;24.70;;;;;;;6.11;71.37;99787.64;131319;1251;108064;-77
2024/03/10 06:56:03;;;;;;;43.70;26.50;;;;;;;6.25;71.09;99801.23;131308;1250;107722;-77
2024/03/10 06:59:08;;;;;;;40.60;25.80;;;;;;;6.38;71.09;99801.28;131116;1253;108679;-77
2024/03/10 07:02:14;;;;;;;39.20;24.70;;;;;;;6.47;70.50;99805.14;131013;1253;106789;-77
2024/03/10 07:05:20;;;;;;;38.30;24.00;;;;;;;6.46;70.57;99803.22;131309;1250;108326;-78
2024/03/10 07:08:25;;;;;;;38.00;24.60;;;;;;;6.44;70.35;99803.11;131283;1253;106583;-77
2024/03/10 07:11:32;;;;;;;40.50;26.40;;;;;;;6.40;70.37;99797.40;131126;1253;107647;-78
2024/03/10 07:14:38;;;;;;;40.20;25.60;;;;;;;6.43;70.61;99793.41;131080;1251;107505;-78
2024/03/10 07:17:44;;;;;;;39.30;26.00;;;;;;;6.49;70.35;99780.56;131228;1253;107794;-77
2024/03/10 07:20:49;;;;;;;39.90;25.70;;;;;;;6.53;70.39;99775.04;131011;1251;108317;-77
2024/03/10 07:23:55;;;;;;;40.80;25.00;;;;;;;6.55;70.14;99781.25;131340;1253;108609;-78
2024/03/10 07:27:01;;;;;;;39.80;24.90;;;;;;;6.53;70.00;99789.02;131098;1254;107328;-78
2024/03/10 07:30:09;;;;;;;35.00;23.50;;;;;;;6.52;70.34;99795.64;130929;1254;108062;-77
2024/03/10 07:33:15;;;;;;;37.10;25.20;;;;;;;6.57;70.33;99798.93;130994;1251;106805;-77
2024/03/10 07:36:21;;;;;;;38.80;24.70;;;;;;;6.62;70.09;99797.03;131121;1250;108443;-77
2024/03/10 07:39:26;;;;;;;39.10;24.30;;;;;;;6.68;70.32;99802.08;130980;1250;106723;-77
2024/03/10 07:42:32;;;;;;;37.20;24.40;;;;;;;6.76;69.89;99805.71;130915;1254;107564;-78
2024/03/10 07:45:38;;;;;;;38.30;24.70;;;;;;;6.83;70.27;99804.15;130994;1251;107616;-78
2024/03/10 07:48:44;;;;;;;40.40;25.60;;;;;;;6.90;70.15;99801.55;131062;1251;106876;-77
2024/03/10 07:51:50;;;;;;;46.70;29.10;;;;;;;6.98;69.69;99791.48;130989;1251;106292;-77
2024/03/10 07:54:55;;;;;;;44.10;29.10;;;;;;;7.06;69.66;99787.73;131175;1254;108721;-77
2024/03/10 07:58:01;;;;;;;44.30;27.30;;;;;;;7.12;69.05;99781.01;130997;1254;108403;-78
2024/03/10 08:01:06;;;;;;;48.20;30.30;;;;;;;7.18;69.46;99778.34;131300;1250;108429;-78
2024/03/10 08:04:13;;;;;;;40.60;25.40;;;;;;;7.26;69.41;99776.48;131251;1253;106410;-78
2024/03/10 08:07:18;;;;;;;42.50;26.60;;;;;;;7.37;69.38;99778.88;131401;1253;107656;-77
2024/03/10 08:10:25;;;;;;;45.30;28.40;;;;;;;7.50;69.49;99778.51;131379;1253;108712;-78
2024/03/10 08:13:31;;;;;;;40.20;26.40;;;;;;;7.63;69.59;99780.45;131203;1254;108741;-77
2024/03/10 08:16:36;;;;;;;38.70;25.60;;;;;;;7.78;69.41;99775.51;131020;1251;108435;-77
2024/03/10 08:19:42;;;;;;;37.20;25.30;;;;;;;7.89;69.17;99772.83;131307;1253;107266;-79
2024/03/10 08:22:49;;;;;;;39.20;25.10;;;;;;;8.00;69.28;99769.61;131311;1251;108630;-78
2024/03/10 08:25:54;;;;;;;41.30;25.50;;;;;;;8.13;68.95;99766.86;131360;1253;108550;-78
2024/03/10 08:29:00;;;;;;;62.00;34.40;;;;;;;8.24;68.78;99764.70;130998;1254;108861;-78
2024/03/10 08:32:06;;;;;;;39.00;24.90;;;;;;;8.32;68.45;99759.63;130975;1249;108549;-78
2024/03/10 08:35:11;;;;;;;38.90;23.60;;;;;;;8.39;68.55;99753.11;131316;1251;106726;-78
2024/03/10 08:38:17;;;;;;;42.40;27.40;;;;;;;8.48;68.76;99750.80;131016;1254;108673;-78
2024/03/10 08:41:24;;;;;;;36.20;23.90;;;;;;;8.57;68.43;99750.29;130942;1251;107533;-78
2024/03/10 08:44:30;;;;;;;34.90;22.70;;;;;;;8.65;68.23;99751.31;131012;1250;106225;-78
2024/03/10 08:47:36;;;;;;;38.10;24.30;;;;;;;8.70;68.44;99751.02;131026;1254;106860;-77
2024/03/10 08:50:42;;;;;;;33.80;22.20;;;;;;;8.80;68.20;99745.48;131128;1254;106596;-78
2024/03/10 08:53:48;;;;;;;31.70;20.70;;;;;;;8.90;68.29;99742.75;131387;1253;108337;-79
2024/03/10 08:56:54;;;;;;;28.40;19.40;;;;;;;9.00;67.97;99733.92;131268;1251;106608;-78
2024/03/10 09:00:00;;;;;;;26.70;17.40;;;;;;;9.10;67.29;99738.83;131007;1253;106346;-79
2024/03/10 09:03:07;;;;;;;33.30;21.90;;;;;;;9.17;66.66;99734.17;130931;1253;106919;-79
2024/03/10 09:06:13;;;;;;;27.60;18.70;;;;;;;9.27;66.89;99724.92;131092;1254;107613;-79
2024/03/10 09:09:19;;;;;;;29.80;19.90;;;;;;;9.40;66.56;99726.25;131945;1250;106870;-79
2024/03/10 09:12:25;;;;;;;25.30;17.60;;;;;;;9.53;66.07;99721.63;131110;1253;106507;-80
2024/03/10 09:15:30;;;;;;;29.40;18.60;;;;;;;9.63;66.36;99720.54;131181;1250;108505;-79
2024/03/10 09:18:36;;;;;;;25.40;17.70;;;;;;;9.76;65.67;99714.39;130917;1254;108434;-79
2024/03/10 09:21:43;;;;;;;31.20;20.20;;;;;;;9.85;66.41;99717.36;131055;1251;107904;-80
2024/03/10 09:24:49;;;;;;;28.10;18.80;;;;;;;9.92;65.36;99712.34;131169;1253;106988;-79
2024/03/10 09:27:56;;;;;;;29.50;20.30;;;;;;;9.99;65.04;99710.38;131010;1254;107732;-78
2024/03/10 09:31:02;;;;;;;31.50;19.60;;;;;;;10.06;65.05;99701.99;130681;1253;417770;-78
2024/03/10 09:34:09;;;;;;;29.50;19.10;;;;;;;10.10;64.78;99693.77;131307;1250;107306;-79
2024/03/10 09:37:14;;;;;;;27.00;17.80;;;;;;;10.14;63.57;99689.64;131267;1254;107018;-79
2024/03/10 09:40:28;;;;;;;29.90;20.00;;;;;;;10.18;63.74;99693.61;130972;1254;107291;-79
2024/03/10 09:43:36;;;;;;;33.40;19.70;;;;;;;10.22;63.61;99690.35;130922;1255;106575;-80
2024/03/10 09:46:44;;;;;;;27.40;18.70;;;;;;;10.29;64.13;99694.40;130958;1255;108706;-79
2024/03/10 09:49:50;;;;;;;28.60;19.60;;;;;;;10.42;63.93;99696.93;130956;1254;108796;-79
2024/03/10 09:52:58;;;;;;;29.30;18.90;;;;;;;10.51;63.86;99689.77;130954;1257;106741;-79
2024/03/10 09:56:04;;;;;;;34.20;22.60;;;;;;;10.56;63.31;99694.84;131178;1254;108134;-79
2024/03/10 09:59:17;;;;;;;38.90;25.00;;;;;;;10.56;63.02;99694.03;130945;1250;107501;-80
2024/03/10 10:02:24;;;;;;;;;;;;;;;10.53;62.56;99690.07;131008;1254;106564;-81
2024/03/10 10:05:32;;;;;;;27.70;19.40;;;;;;;10.52;62.37;99693.58;131272;1253;107661;-80
2024/03/10 10:08:38;;;;;;;40.80;30.10;;;;;;;10.52;62.77;99690.67;131235;1253;107181;-81
2024/03/10 10:11:45;;;;;;;32.40;23.40;;;;;;;10.56;62.94;99690.44;131035;1254;108657;-79
2024/03/10 10:14:53;;;;;;;46.30;25.70;;;;;;;10.65;63.22;99693.40;131007;1253;107810;-81
2024/03/10 10:18:01;;;;;;;32.90;20.90;;;;;;;10.70;62.86;99692.70;131038;1253;106484;-78
2024/03/10 10:21:07;;;;;;;28.30;18.10;;;;;;;10.73;62.17;99696.60;131159;1251;107072;-78
2024/03/10 10:24:15;;;;;;;37.70;22.70;;;;;;;10.75;62.12;99692.45;131100;1254;108768;-79
2024/03/10 10:27:21;;;;;;;37.40;24.00;;;;;;;10.80;62.06;99694.80;130970;1257;106929;-78
2024/03/10 10:30:28;;;;;;;30.10;20.40;;;;;;;10.89;62.53;99689.48;131146;1253;107691;-81
2024/03/10 10:33:34;;;;;;;32.20;21.30;;;;;;;11.04;62.18;99689.09;131012;1251;107098;-80
2024/03/10 10:36:40;;;;;;;38.30;25.00;;;;;;;11.15;61.67;99683.86;131054;1251;106596;-79
2024/03/10 10:39:45;;;;;;;27.10;18.80;;;;;;;11.25;61.71;99679.27;131065;1251;106504;-79
2024/03/10 10:42:51;;;;;;;46.20;30.20;;;;;;;11.33;61.09;99686.02;131058;1255;107493;-79
2024/03/10 10:45:58;;;;;;;24.30;17.20;;;;;;;11.38;60.40;99681.05;130963;1255;108632;-79
2024/03/10 10:49:04;;;;;;;27.40;18.40;;;;;;;11.43;60.49;99681.63;130972;1254;108602;-79
2024/03/10 10:52:11;;;;;;;19.90;15.00;;;;;;;11.48;60.26;99680.80;131346;1250;109282;-80
2024/03/10 10:55:19;;;;;;;21.80;15.40;;;;;;;11.60;60.90;99684.30;131376;1253;107822;-82
2024/03/10 10:58:31;;;;;;;24.00;15.20;;;;;;;11.74;60.86;99683.16;131127;1253;108140;-80
2024/03/10 11:01:39;;;;;;;19.30;13.50;;;;;;;11.90;60.51;99689.62;131083;1256;106727;-82
2024/03/10 11:04:45;;;;;;;18.30;13.80;;;;;;;11.99;59.93;99681.82;131085;1253;108632;-81
2024/03/10 11:07:51;;;;;;;20.70;15.10;;;;;;;12.07;58.89;99686.49;131163;1253;107598;-82
2024/03/10 11:10:56;;;;;;;19.50;13.60;;;;;;;12.09;59.15;99683.13;131259;1253;108544;-82
2024/03/10 11:14:03;;;;;;;20.40;15.10;;;;;;;12.16;59.40;99672.89;131280;1250;107799;-81
2024/03/10 11:17:16;;;;;;;20.40;15.30;;;;;;;12.22;58.31;99671.05;131198;1253;107661;-82
2024/03/10 11:20:23;;;;;;;19.20;14.20;;;;;;;12.27;58.61;99663.89;131215;1254;108504;-82
2024/03/10 11:23:37;;;;;;;19.70;13.60;;;;;;;12.28;58.10;99657.79;131241;1251;107625;-81
2024/03/10 11:26:43;;;;;;;20.80;14.80;;;;;;;12.34;58.39;99656.59;131289;1253;108729;-82
2024/03/10 11:29:49;;;;;;;18.70;13.80;;;;;;;12.42;58.43;99653.91;131234;1253;107667;-81
2024/03/10 11:33:07;;;;;;;18.10;13.20;;;;;;;12.43;57.95;99648.71;131390;1248;107482;-82
2024/03/10 11:36:12;;;;;;;17.80;12.90;;;;;;;12.46;57.99;99645.22;131384;1253;106864;-81
2024/03/10 11:39:20;;;;;;;19.40;13.20;;;;;;;12.51;57.54;99641.23;131953;1249;106772;-85
2024/03/10 11:42:26;;;;;;;18.60;13.20;;;;;;;12.52;57.38;99635.10;131770;1253;106800;-82
2024/03/10 11:45:31;;;;;;;18.70;13.20;;;;;;;12.56;58.15;99637.26;131193;1251;107670;-81
2024/03/10 11:48:37;;;;;;;19.50;13.90;;;;;;;12.66;58.30;99640.39;131269;1250;107931;-81
2024/03/10 11:51:45;;;;;;;18.10;13.20;;;;;;;12.75;58.08;99638.93;131229;1256;107820;-82
2024/03/10 11:54:59;;;;;;;17.70;13.00;;;;;;;12.80;57.24;99632.86;131462;1250;107769;-81
2024/03/10 11:58:05;;;;;;;19.50;13.90;;;;;;;12.82;57.21;99635.58;131204;1263;108856;-82
2024/03/10 12:01:12;;;;;;;19.50;14.20;;;;;;;12.83;57.03;99626.98;131266;1254;107630;-84
2024/03/10 12:04:19;;;;;;;19.10;14.10;;;;;;;12.82;57.00;99618.31;131270;1253;106711;-82
2024/03/10 12:07:26;;;;;;;21.70;14.90;;;;;;;12.84;56.86;99611.05;131116;1253;106585;-82
2024/03/10 12:10:34;;;;;;;21.10;14.30;;;;;;;12.87;55.89;99612.86;131414;1253;106373;-82
2024/03/10 12:13:43;;;;;;;23.50;15.50;;;;;;;12.88;55.73;99612.02;131335;1253;107980;-82
2024/03/10 12:16:51;;;;;;;21.20;14.40;;;;;;;12.90;56.03;99608.59;131243;1253;108897;-83
2024/03/10 12:19:58;;;;;;;21.90;14.90;;;;;;;12.94;56.02;99608.81;131338;1251;109242;-83
2024/03/10 12:23:03;;;;;;;20.20;14.40;;;;;;;13.02;55.92;99607.75;131204;1253;107566;-82
2024/03/10 12:26:11;;;;;;;23.50;15.90;;;;;;;13.01;55.58;99606.42;131125;1249;108763;-83
2024/03/10 12:29:21;;;;;;;24.50;16.30;;;;;;;12.95;55.33;99611.21;131125;1253;108085;-83
2024/03/10 12:32:27;;;;;;;21.80;15.00;;;;;;;12.90;55.77;99601.92;131174;1253;106917;-83
2024/03/10 12:35:33;;;;;;;20.90;14.20;;;;;;;12.88;55.86;99601.63;131148;1253;108873;-83
2024/03/10 12:38:48;;;;;;;17.90;13.30;;;;;;;12.87;55.85;99603.10;131430;1253;107510;-84
2024/03/10 12:42:04;;;;;;;22.30;14.10;;;;;;;12.86;56.10;99608.16;131249;1263;108146;-82
2024/03/10 12:45:15;;;;;;;21.10;15.40;;;;;;;12.91;56.60;99603.59;131222;1249;109197;-82
2024/03/10 12:48:23;;;;;;;20.30;14.70;;;;;;;13.02;56.63;99600.97;131107;1257;106586;-85
2024/03/10 12:51:29;;;;;;;17.40;13.30;;;;;;;13.08;55.97;99599.11;131312;1255;107611;-82
2024/03/10 12:54:34;;;;;;;17.10;13.20;;;;;;;13.11;55.96;99597.67;131442;1253;108564;-85
2024/03/10 12:57:40;;;;;;;16.70;11.70;;;;;;;13.16;55.68;99595.50;131091;1254;107586;-84
2024/03/10 13:00:47;;;;;;;13.60;10.50;;;;;;;13.22;55.82;99595.59;131109;1256;107666;-81
2024/03/10 13:03:52;;;;;;;15.20;9.80;;;;;;;13.28;55.73;99590.44;131138;1251;107769;-81
2024/03/10 13:06:58;;;;;;;11.30;8.90;;;;;;;13.35;55.24;99593.68;131156;1253;107466;-81
2024/03/10 13:10:07;;;;;;;15.00;10.20;;;;;;;13.38;55.08;99591.58;131249;1256;106259;-82
2024/03/10 13:13:12;;;;;;;13.10;9.50;;;;;;;13.42;54.77;99592.73;131136;1255;108758;-83
2024/03/10 13:16:18;;;;;;;13.10;8.80;;;;;;;13.42;53.93;99590.34;131101;1257;107940;-83
2024/03/10 13:19:24;;;;;;;12.40;8.90;;;;;;;13.43;54.48;99585.98;131249;1253;107495;-83
2024/03/10 13:22:29;;;;;;;12.80;9.50;;;;;;;13.44;54.17;99586.52;131458;1253;108736;-82
2024/03/10 13:25:35;;;;;;;13.20;8.80;;;;;;;13.45;54.41;99589.71;131358;1253;107440;-83
2024/03/10 13:28:42;;;;;;;12.20;9.60;;;;;;;13.46;54.14;99584.50;131221;1253;107403;-82
2024/03/10 13:31:50;;;;;;;328.20;146.60;;;;;;;13.44;53.71;99577.96;131192;1251;107529;-83
2024/03/10 13:34:56;;;;;;;68.60;34.10;;;;;;;13.46;54.46;99571.33;131303;1253;108772;-83
2024/03/10 13:38:02;;;;;;;29.40;18.20;;;;;;;13.48;54.26;99575.94;131446;1257;107427;-83
2024/03/10 13:41:09;;;;;;;18.60;14.50;;;;;;;13.47;54.44;99571.35;131308;1254;106689;-83
2024/03/10 13:44:14;;;;;;;324.10;259.40;;;;;;;13.47;54.66;99568.70;131344;1253;108221;-81
2024/03/10 13:47:20;;;;;;;178.10;127.00;;;;;;;13.47;54.61;99566.20;131117;1256;107868;-81
2024/03/10 13:50:26;;;;;;;173.90;138.70;;;;;;;13.46;54.04;99566.55;131099;1251;107836;-81
2024/03/10 13:53:34;;;;;;;188.90;142.90;;;;;;;13.42;53.87;99560.33;131251;1256;108640;-81
2024/03/10 13:56:40;;;;;;;178.70;159.20;;;;;;;13.38;53.64;99567.66;132319;1250;107524;-82
2024/03/10 13:59:47;;;;;;;86.00;73.90;;;;;;;13.33;53.82;99571.15;131564;1253;107335;-81
2024/03/10 14:02:53;;;;;;;74.10;62.20;;;;;;;13.29;53.45;99564.38;131198;1253;106938;-81
2024/03/10 14:05:59;;;;;;;26.50;23.50;;;;;;;13.24;53.59;99565.82;131183;1253;108675;-81
2024/03/10 14:09:04;;;;;;;22.10;18.60;;;;;;;13.18;53.53;99561.88;131364;1250;108651;-81
2024/03/10 14:12:10;;;;;;;98.10;80.60;;;;;;;13.12;53.66;99559.69;131164;1254;105777;-83
2024/03/10 14:15:16;;;;;;;116.50;104.40;;;;;;;13.08;53.61;99555.73;131183;1256;107676;-82
2024/03/10 14:18:21;;;;;;;78.60;70.20;;;;;;;13.03;53.60;99552.94;131192;1251;107285;-84
2024/03/10 14:21:27;;;;;;;42.50;28.60;;;;;;;13.00;53.71;99551.71;131682;1253;107586;-82
2024/03/10 14:24:32;;;;;;;217.10;178.80;;;;;;;12.97;53.98;99545.64;131776;1253;106982;-82